Detall de PIREP

Printer-friendly versionPDF version

[2014/06/22 18:59:00]
Flight IATA:CT1004
Pilot Number:044
Company ICAO:CAT
Aircraft Type:BE20/A
PAX:4
Departing Airport: LFMP
Destination Airport: LEBL
Alternate Airport:LELL
Online: VATSIM
Route:ALBER
Flight Level:F090
No Slew and time accel
No pause
Crash detect
Detect pilot in Cockpit between each 30 and 45 minutes
18:59 Zero fuel Weight: 9657 Lbs, Fuel Weight: 1774 Lbs
18:59 VATSIM:LFMP 221900Z AUTO 08006KT 9999 FEW010 SCT020 BKN026 23/20 Q1017
18:59 VATSIM:LEBL 221900Z 14003KT 110V170 9999 FEW015 24/20 Q1016 NOSIG
19:00 FLAMA DEL CANIGO
19:01 Parking Brakes off
19:07 Take-off
19:07 Take off Weight: 11406 Lbs
19:07 Wind: 082º @ 006 Knots Heading: 142º
19:07 POS N42º 44´ 35´´ E002º 52´ 16´´
19:07 Flaps:1 at 124 Knots
19:07 Flaps:0 at 109 Knots
19:07 Gear Up: 110 Knots
19:14 TOC
19:14 Fuel Weight: 1651 Lb
19:22 Wind:179º@014 Knots Heading: 188º Ground Speed: 216 Knots Altitude 9110 ft
19:25 TOD
19:25 Fuel Weight: 1539 Lb
19:34 Flaps:1 at 156 Knots
19:35 Gear Down: 149 Knots
19:35 Flaps:2 at 117 Knots
19:37 Wind:173º@004 Knots Heading: 246º Ground Speed: 123 Knots Altitude 265 ft
19:37 TouchDown:Rate -138 ft/min Speed: 102 Knots
19:38 VATSIM:LEBL 221930Z VRB02KT 9999 FEW015 23/20 Q1016 NOSIG
19:38 Land
19:38 Wind:170º@004 Knots
19:38 Heading: 241º
19:38 Flight Duration: 00:31
19:38 Landing Weight: 11125 Lbs
19:38 POS N41º 17´ 44´´ E002º 04´ 29´´
19:41 Parking brakes on
19:41 Block to Block Duration: 00:40
19:41 Final Fuel: 1459 Lbls
19:41 Spent Fuel: 315 Lbls
19:41 Flight Length: 99 NM
19:41 TOD Land Length: 38 NM

Exportar CSV

Powered by Drupal - Modified by Danger4k